Time;durP1;ratioP1;P1;durP2;ratioP2;P2;SDS_P1;SDS_P2;PMS_P1;PMS_P2;Temp;Humidity;BMP_temperature;BMP_pressure;BME280_temperature;BME280_humidity;BME280_pressure;Samples;Min_cycle;Max_cycle;Signal;HPM_P1;HPM_P2
2023/02/11 00:01:36;;;;;;;28.40;17.33;;;0.30;68.20;;;;;;6277348;28;20485;-62
2023/02/11 00:04:41;;;;;;;30.33;16.73;;;0.30;68.40;;;;;;6277225;28;20470;-62
2023/02/11 00:07:44;;;;;;;27.23;16.20;;;0.30;68.60;;;;;;6277220;28;20481;-62
2023/02/11 00:10:51;;;;;;;23.07;16.83;;;0.20;69.10;;;;;;6276638;28;20485;-62
2023/02/11 00:13:55;;;;;;;23.33;16.43;;;0.20;69.40;;;;;;6277552;28;20465;-62
2023/02/11 00:16:58;;;;;;;24.73;16.73;;;0.10;69.20;;;;;;6276642;28;20466;-63
2023/02/11 00:20:03;;;;;;;21.47;14.33;;;0.10;69.90;;;;;;6276736;28;20490;-62
2023/02/11 00:23:10;;;;;;;23.43;15.80;;;0.10;70.20;;;;;;6276222;28;20738;-62
2023/02/11 00:26:14;;;;;;;23.67;15.63;;;0.10;70.70;;;;;;6276878;28;20883;-62
2023/02/11 00:29:17;;;;;;;18.53;14.90;;;0.10;70.80;;;;;;6276793;28;20470;-62
2023/02/11 00:32:20;;;;;;;23.13;15.00;;;0.10;71.00;;;;;;6277304;28;20458;-62
2023/02/11 00:35:25;;;;;;;20.77;14.73;;;0.10;71.00;;;;;;6276660;28;20462;-61
2023/02/11 00:38:28;;;;;;;28.83;16.40;;;0.00;71.40;;;;;;6276775;28;20478;-63
2023/02/11 00:41:31;;;;;;;27.70;16.93;;;0.00;71.70;;;;;;6276499;28;20500;-62
2023/02/11 00:44:34;;;;;;;23.00;17.90;;;0.10;71.70;;;;;;6276694;28;20795;-62
2023/02/11 00:47:38;;;;;;;23.27;17.17;;;0.00;72.00;;;;;;6276076;28;20531;-62
2023/02/11 00:50:42;;;;;;;25.60;15.30;;;0.00;72.20;;;;;;6275838;28;21057;-62
2023/02/11 00:53:46;;;;;;;24.67;17.70;;;0.00;72.30;;;;;;6276254;28;20477;-62
2023/02/11 00:56:49;;;;;;;27.63;16.47;;;0.00;72.60;;;;;;6276164;28;20552;-62
2023/02/11 00:59:52;;;;;;;25.80;16.63;;;0.00;72.60;;;;;;6275697;28;20478;-62
2023/02/11 01:02:55;;;;;;;22.50;16.67;;;-0.10;72.80;;;;;;6276129;28;20516;-62
2023/02/11 01:06:00;;;;;;;22.37;16.27;;;-0.10;72.70;;;;;;6275940;28;21003;-62
2023/02/11 01:09:03;;;;;;;21.90;16.67;;;0.00;73.10;;;;;;6275416;28;20478;-63
2023/02/11 01:12:07;;;;;;;24.53;14.13;;;-0.10;73.30;;;;;;6275446;28;20473;-62
2023/02/11 01:15:13;;;;;;;20.57;15.10;;;-0.10;73.30;;;;;;6275788;28;20486;-62
2023/02/11 01:18:16;;;;;;;22.20;14.13;;;-0.10;73.40;;;;;;6275225;28;20490;-63
2023/02/11 01:21:21;;;;;;;30.63;17.50;;;-0.20;73.70;;;;;;6274828;28;20802;-62
2023/02/11 01:24:24;;;;;;;20.90;14.73;;;-0.20;73.80;;;;;;6276013;28;20489;-62
2023/02/11 01:27:27;;;;;;;23.73;14.83;;;-0.20;74.10;;;;;;6275683;28;20796;-62
2023/02/11 01:30:31;;;;;;;20.70;15.43;;;-0.20;74.30;;;;;;6275513;28;20483;-61
2023/02/11 01:33:34;;;;;;;24.20;14.43;;;-0.30;74.20;;;;;;6276114;28;20478;-61
2023/02/11 01:36:39;;;;;;;20.50;15.17;;;-0.30;75.40;;;;;;6275453;28;20471;-61
2023/02/11 01:39:42;;;;;;;20.57;14.70;;;-0.30;75.70;;;;;;6275091;28;20748;-61
2023/02/11 01:42:45;;;;;;;23.90;15.17;;;-0.30;75.70;;;;;;6274984;28;20470;-61
2023/02/11 01:46:02;;;;;;;20.80;13.80;;;-0.30;75.80;;;;;;6275265;28;20951;-61
2023/02/11 01:49:09;;;;;;;18.07;14.30;;;-0.30;75.80;;;;;;6274917;28;20489;-62
2023/02/11 01:52:18;;;;;;;23.97;14.80;;;-0.50;75.50;;;;;;6275014;28;20470;-61
2023/02/11 01:58:45;;;;;;;20.17;13.67;;;-0.50;76.20;;;;;;6265519;28;20463;-61
2023/02/11 02:01:53;;;;;;;18.37;14.13;;;-0.50;76.70;;;;;;6273942;28;20489;-61
2023/02/11 02:05:04;;;;;;;22.67;13.30;;;-0.50;77.40;;;;;;6274857;28;20469;-61
2023/02/11 02:08:14;;;;;;;22.43;14.23;;;-0.50;77.60;;;;;;6274487;28;20423;-62
2023/02/11 02:11:17;;;;;;;20.57;15.13;;;-0.50;77.50;;;;;;6275190;28;20576;-61
2023/02/11 02:14:20;;;;;;;22.03;13.87;;;-0.50;77.40;;;;;;6274406;28;20469;-61
2023/02/11 02:17:36;;;;;;;17.20;13.83;;;-0.60;77.30;;;;;;6274911;28;20470;-61
2023/02/11 02:21:10;;;;;;;21.50;14.13;;;-0.60;77.60;;;;;;6274245;28;20806;-61
2023/02/11 02:24:36;;;;;;;21.07;13.90;;;-0.60;77.90;;;;;;6274742;28;20474;-61
2023/02/11 02:27:53;;;;;;;19.63;14.00;;;-0.60;78.20;;;;;;6274177;28;20473;-61
2023/02/11 02:31:30;;;;;;;20.73;14.93;;;-0.60;78.50;;;;;;6274058;28;20970;-61
2023/02/11 02:34:42;;;;;;;24.27;13.70;;;-0.70;78.70;;;;;;6232258;28;20470;-61
2023/02/11 02:37:56;;;;;;;25.63;16.87;;;-0.70;78.90;;;;;;6274795;28;20466;-61
2023/02/11 02:41:03;;;;;;;22.77;14.23;;;-0.70;79.30;;;;;;6274710;28;20478;-62
2023/02/11 02:44:08;;;;;;;22.70;14.20;;;-0.70;79.10;;;;;;6274820;28;20442;-62
2023/02/11 02:47:11;;;;;;;22.50;15.10;;;-0.70;79.10;;;;;;6273878;28;21190;-62
2023/02/11 02:50:23;;;;;;;21.67;13.53;;;-0.70;79.30;;;;;;6273998;28;20469;-62
2023/02/11 02:53:34;;;;;;;19.73;14.27;;;-0.80;80.00;;;;;;6273925;28;20474;-62
2023/02/11 02:56:44;;;;;;;23.40;13.67;;;-0.80;80.50;;;;;;6274032;28;20492;-62
2023/02/11 03:00:01;;;;;;;19.47;15.10;;;-0.80;81.00;;;;;;6269077;28;20474;-62
2023/02/11 03:03:16;;;;;;;21.50;13.00;;;-0.90;81.00;;;;;;6274010;28;20471;-62
2023/02/11 03:06:31;;;;;;;20.67;13.87;;;-0.80;81.60;;;;;;6273416;28;20479;-62
2023/02/11 03:09:38;;;;;;;19.10;12.73;;;-0.90;81.50;;;;;;6273669;28;20486;-62
2023/02/11 03:12:44;;;;;;;22.73;13.97;;;-0.90;81.70;;;;;;6276604;28;20470;-62
2023/02/11 03:15:51;;;;;;;18.17;13.23;;;-0.90;82.10;;;;;;6278571;28;20536;-62
2023/02/11 03:19:03;;;;;;;19.27;13.40;;;-0.90;82.10;;;;;;6278207;28;20490;-62
2023/02/11 03:22:11;;;;;;;22.70;14.60;;;-0.90;82.50;;;;;;6278547;28;20482;-62
2023/02/11 03:25:15;;;;;;;29.43;16.10;;;-0.90;82.70;;;;;;6278258;28;20475;-62
2023/02/11 03:28:25;;;;;;;24.70;15.07;;;-0.90;82.70;;;;;;6278066;28;20470;-62
2023/02/11 03:31:34;;;;;;;24.10;14.30;;;-0.90;82.70;;;;;;6278425;28;20783;-62
2023/02/11 03:34:44;;;;;;;23.20;16.03;;;-1.00;82.90;;;;;;6278001;28;20465;-62
2023/02/11 03:37:54;;;;;;;22.37;15.80;;;-1.00;83.30;;;;;;6278030;28;20478;-62
2023/02/11 03:41:00;;;;;;;22.70;15.60;;;-1.00;83.50;;;;;;6277391;28;20475;-62
2023/02/11 03:44:06;;;;;;;20.30;13.57;;;-1.10;83.80;;;;;;6277448;28;20867;-62
2023/02/11 03:47:12;;;;;;;18.77;14.23;;;-1.10;84.40;;;;;;6277695;28;20418;-62
2023/02/11 03:50:17;;;;;;;16.43;13.53;;;-1.10;84.60;;;;;;6277923;28;20493;-62
2023/02/11 03:53:23;;;;;;;22.37;15.00;;;-1.10;84.30;;;;;;6278993;28;20462;-62
2023/02/11 03:56:30;;;;;;;23.53;14.90;;;-1.10;84.40;;;;;;6278469;28;20466;-62
2023/02/11 03:59:53;;;;;;;24.00;16.07;;;-1.20;84.90;;;;;;6252976;28;20482;-62
2023/02/11 04:02:56;;;;;;;25.57;16.13;;;-1.20;84.90;;;;;;6252758;28;20587;-62
2023/02/11 04:06:00;;;;;;;20.93;14.80;;;-1.20;85.00;;;;;;6253018;28;20481;-62
2023/02/11 04:09:04;;;;;;;18.37;13.20;;;-1.20;85.00;;;;;;6252271;28;20474;-62
2023/02/11 04:12:08;;;;;;;20.43;13.60;;;-1.30;85.40;;;;;;6252532;28;20907;-62
2023/02/11 04:15:11;;;;;;;20.67;15.30;;;-1.30;85.60;;;;;;6252426;28;20777;-62
2023/02/11 04:18:14;;;;;;;23.13;15.10;;;-1.40;85.60;;;;;;6252722;28;20494;-62
2023/02/11 04:21:18;;;;;;;18.40;14.50;;;-1.40;86.00;;;;;;6252357;28;20490;-62
2023/02/11 04:24:22;;;;;;;17.13;13.93;;;-1.40;86.20;;;;;;6251609;28;20478;-61
2023/02/11 04:27:26;;;;;;;20.77;13.87;;;-1.50;86.40;;;;;;6266917;28;20811;-61
2023/02/11 04:30:29;;;;;;;21.53;13.30;;;-1.40;86.70;;;;;;6276567;28;20811;-61
2023/02/11 04:33:32;;;;;;;18.63;14.70;;;-1.50;86.90;;;;;;6276454;28;20782;-61
2023/02/11 04:36:35;;;;;;;22.57;15.17;;;-1.50;87.00;;;;;;6276982;28;20755;-61
2023/02/11 04:39:40;;;;;;;24.67;16.13;;;-1.50;87.20;;;;;;6276256;28;20478;-61
2023/02/11 04:42:43;;;;;;;24.77;15.60;;;-1.50;87.70;;;;;;6276684;28;20482;-61
2023/02/11 04:45:46;;;;;;;27.10;15.07;;;-1.60;88.30;;;;;;6276627;28;20482;-61
2023/02/11 04:48:50;;;;;;;19.83;14.20;;;-1.60;88.60;;;;;;6275924;28;20516;-61
2023/02/11 04:51:53;;;;;;;19.27;14.30;;;-1.60;88.50;;;;;;6276236;28;20476;-61
2023/02/11 04:54:58;;;;;;;21.70;15.33;;;-1.60;88.50;;;;;;6276414;28;20480;-61
2023/02/11 04:58:01;;;;;;;21.37;13.60;;;-1.60;89.00;;;;;;6276237;28;20757;-62
2023/02/11 05:01:08;;;;;;;23.97;14.20;;;-1.60;89.20;;;;;;6276213;28;20489;-62
2023/02/11 05:04:11;;;;;;;22.27;14.03;;;-1.60;89.40;;;;;;6276180;28;20814;-62
2023/02/11 05:07:14;;;;;;;24.87;14.47;;;-1.60;88.90;;;;;;6276000;28;20599;-61
2023/02/11 05:10:19;;;;;;;16.30;11.93;;;-1.70;89.20;;;;;;6267073;28;20481;-61
2023/02/11 05:13:22;;;;;;;18.23;12.80;;;-1.60;89.40;;;;;;6275837;28;20475;-61
2023/02/11 05:16:25;;;;;;;22.53;14.20;;;-1.60;89.40;;;;;;6275895;28;20500;-61
2023/02/11 05:19:30;;;;;;;21.30;13.30;;;-1.60;89.40;;;;;;6275594;28;20485;-61
2023/02/11 05:22:33;;;;;;;25.40;15.00;;;-1.60;89.20;;;;;;6275991;28;20478;-61
2023/02/11 05:25:38;;;;;;;20.67;14.50;;;-1.60;89.40;;;;;;6275616;28;20474;-61
2023/02/11 05:28:42;;;;;;;22.40;14.70;;;-1.70;89.40;;;;;;6275282;28;20482;-62
2023/02/11 05:31:45;;;;;;;20.00;13.47;;;-1.60;89.60;;;;;;6275882;28;20946;-62
2023/02/11 05:34:48;;;;;;;20.30;13.33;;;-1.60;89.20;;;;;;6275537;28;20486;-62
2023/02/11 05:37:52;;;;;;;18.93;13.37;;;-1.80;89.00;;;;;;6275404;28;20996;-64
2023/02/11 05:40:56;;;;;;;18.50;12.47;;;-1.80;89.20;;;;;;6275209;28;20505;-62
2023/02/11 05:43:59;;;;;;;19.87;12.97;;;-1.80;89.50;;;;;;6275054;28;20486;-62
2023/02/11 05:47:03;;;;;;;25.13;13.20;;;-1.80;90.00;;;;;;6274904;28;20768;-62
2023/02/11 05:50:06;;;;;;;19.20;13.53;;;-1.80;90.10;;;;;;6275295;28;20477;-62
2023/02/11 05:53:10;;;;;;;16.40;12.80;;;-1.80;90.10;;;;;;6274876;28;20709;-62
2023/02/11 05:56:14;;;;;;;17.97;12.67;;;-1.80;90.50;;;;;;6275511;28;20466;-62
2023/02/11 05:59:18;;;;;;;21.13;13.10;;;-1.80;90.80;;;;;;6275005;28;20534;-63
2023/02/11 06:02:21;;;;;;;21.73;13.30;;;-1.80;90.70;;;;;;6274486;28;20469;-62
2023/02/11 06:05:25;;;;;;;17.83;13.57;;;-1.80;91.00;;;;;;6275191;28;20462;-62
2023/02/11 06:08:29;;;;;;;16.90;13.13;;;-1.70;90.80;;;;;;6274403;28;20470;-63
2023/02/11 06:11:33;;;;;;;18.13;13.00;;;-1.70;90.60;;;;;;6270533;28;20470;-62
2023/02/11 06:14:36;;;;;;;26.70;15.37;;;-1.70;90.70;;;;;;6274666;28;20489;-62
2023/02/11 06:17:40;;;;;;;24.30;14.40;;;-1.60;90.70;;;;;;6274357;28;20466;-62
2023/02/11 06:20:43;;;;;;;25.07;14.77;;;-1.60;90.60;;;;;;6274472;28;20470;-62
2023/02/11 06:23:46;;;;;;;26.60;16.90;;;-1.60;90.40;;;;;;6274311;28;20480;-62
2023/02/11 06:26:50;;;;;;;23.63;15.27;;;-1.50;90.50;;;;;;6274192;28;20474;-62
2023/02/11 06:29:54;;;;;;;23.30;15.00;;;-1.50;90.60;;;;;;6274702;28;20477;-62
2023/02/11 06:32:57;;;;;;;25.57;15.90;;;-1.40;90.50;;;;;;6274237;28;20459;-62
2023/02/11 06:36:00;;;;;;;26.93;17.00;;;-1.30;90.60;;;;;;6274080;28;20478;-62
2023/02/11 06:39:04;;;;;;;24.67;14.97;;;-1.20;90.40;;;;;;6274134;28;20474;-62
2023/02/11 06:42:10;;;;;;;24.20;14.60;;;-1.20;90.30;;;;;;6274331;28;20589;-62
2023/02/11 06:45:13;;;;;;;21.50;12.83;;;-1.10;90.30;;;;;;6273980;28;20482;-62
2023/02/11 06:48:17;;;;;;;20.33;13.70;;;-1.00;90.00;;;;;;6281312;28;20560;-63
2023/02/11 06:51:20;;;;;;;22.60;14.40;;;-0.90;90.10;;;;;;6282456;28;20466;-62
2023/02/11 06:54:23;;;;;;;18.93;13.50;;;-0.70;90.00;;;;;;6283118;28;20918;-62
2023/02/11 06:57:28;;;;;;;19.40;14.33;;;-0.60;89.20;;;;;;6283577;28;20470;-62
2023/02/11 07:00:31;;;;;;;20.87;13.80;;;-0.50;88.00;;;;;;6283569;28;20473;-61
2023/02/11 07:03:35;;;;;;;17.60;14.73;;;-0.30;88.00;;;;;;6283420;28;20485;-62
2023/02/11 07:06:38;;;;;;;18.43;13.47;;;-0.10;87.60;;;;;;6282679;28;20481;-62
2023/02/11 07:09:42;;;;;;;16.87;13.90;;;0.00;86.80;;;;;;6283104;28;20477;-62
2023/02/11 07:12:46;;;;;;;22.23;14.87;;;0.20;86.30;;;;;;6283055;28;20481;-62
2023/02/11 07:15:50;;;;;;;20.37;13.93;;;0.30;84.90;;;;;;6282982;28;20570;-62
2023/02/11 07:18:54;;;;;;;18.17;14.03;;;0.50;84.90;;;;;;6282734;28;20484;-62
2023/02/11 07:21:57;;;;;;;25.93;16.50;;;0.60;84.20;;;;;;6282953;28;20477;-62
2023/02/11 07:25:00;;;;;;;21.50;15.70;;;0.60;83.70;;;;;;6283033;28;20915;-62
2023/02/11 07:28:05;;;;;;;20.70;16.57;;;0.70;84.10;;;;;;6282742;28;20564;-62
2023/02/11 07:31:10;;;;;;;19.60;16.70;;;0.80;83.10;;;;;;6281831;28;20496;-62
2023/02/11 07:34:13;;;;;;;21.77;15.37;;;0.90;83.30;;;;;;6281184;28;20629;-62
2023/02/11 07:37:16;;;;;;;20.57;16.27;;;0.90;82.80;;;;;;6282772;28;20806;-62
2023/02/11 07:40:20;;;;;;;22.53;16.67;;;0.90;82.00;;;;;;6282173;28;20850;-62
2023/02/11 07:43:24;;;;;;;18.50;15.13;;;0.90;82.10;;;;;;6282154;28;20506;-62
2023/02/11 07:46:28;;;;;;;20.60;15.27;;;1.00;81.80;;;;;;6282623;28;20473;-63
2023/02/11 07:49:31;;;;;;;26.60;18.60;;;1.10;81.90;;;;;;6281043;28;20466;-63
2023/02/11 07:52:34;;;;;;;24.70;17.40;;;1.20;81.40;;;;;;6280674;28;21054;-63
2023/02/11 07:55:37;;;;;;;32.07;17.90;;;1.30;81.00;;;;;;6281738;28;20474;-63
2023/02/11 07:58:42;;;;;;;26.40;16.53;;;1.30;80.60;;;;;;6278585;28;20489;-63
2023/02/11 08:01:46;;;;;;;21.17;16.23;;;1.20;80.50;;;;;;6278262;28;20473;-63
2023/02/11 08:04:49;;;;;;;20.33;17.00;;;1.40;80.30;;;;;;6278037;28;20973;-63
2023/02/11 08:07:53;;;;;;;22.53;16.13;;;1.40;79.90;;;;;;6277835;28;20480;-63
2023/02/11 08:10:56;;;;;;;25.13;17.57;;;1.40;79.30;;;;;;6277873;28;20470;-62
2023/02/11 08:14:01;;;;;;;21.20;16.30;;;1.40;79.70;;;;;;6277887;28;20470;-62
2023/02/11 08:17:04;;;;;;;26.23;17.17;;;1.50;79.60;;;;;;6277548;28;20755;-62
2023/02/11 08:20:08;;;;;;;24.80;17.20;;;1.70;79.80;;;;;;6273600;28;20497;-63
2023/02/11 08:23:11;;;;;;;23.10;17.73;;;1.90;79.40;;;;;;6278179;28;20752;-62
2023/02/11 08:26:16;;;;;;;24.33;17.23;;;2.10;78.30;;;;;;6279272;28;20449;-62
2023/02/11 08:29:21;;;;;;;27.23;17.80;;;2.20;77.40;;;;;;6278379;28;20969;-63
2023/02/11 08:32:24;;;;;;;25.13;19.37;;;2.30;76.70;;;;;;6278542;28;20454;-62
2023/02/11 08:35:28;;;;;;;21.97;18.00;;;2.30;76.30;;;;;;6278141;28;20467;-62
2023/02/11 08:38:31;;;;;;;27.33;18.47;;;2.20;76.40;;;;;;6277873;28;20484;-63
2023/02/11 08:41:35;;;;;;;28.23;21.37;;;2.20;76.90;;;;;;6277602;28;20484;-62
2023/02/11 08:44:40;;;;;;;25.93;18.57;;;2.30;76.40;;;;;;6277744;28;20485;-63
2023/02/11 08:47:43;;;;;;;23.47;16.97;;;2.50;75.60;;;;;;6278468;28;20466;-62
2023/02/11 08:50:46;;;;;;;25.63;17.87;;;2.70;75.40;;;;;;6277775;28;20974;-62
2023/02/11 08:53:50;;;;;;;23.90;18.60;;;2.90;74.50;;;;;;6278080;28;21009;-62
2023/02/11 08:56:54;;;;;;;27.53;19.80;;;3.20;73.40;;;;;;6277522;28;20472;-62
2023/02/11 08:59:58;;;;;;;27.67;19.63;;;3.50;72.40;;;;;;6277152;28;20475;-62
2023/02/11 09:03:01;;;;;;;26.87;18.57;;;3.70;71.20;;;;;;6277577;28;20473;-63
2023/02/11 09:06:06;;;;;;;25.67;17.73;;;4.10;70.20;;;;;;6277203;28;20941;-63
2023/02/11 09:09:12;;;;;;;22.43;17.93;;;4.50;69.20;;;;;;6276216;28;20466;-61
2023/02/11 09:12:15;;;;;;;23.53;17.40;;;5.00;67.10;;;;;;6276799;28;20477;-61
2023/02/11 09:15:20;;;;;;;24.10;18.10;;;5.40;64.10;;;;;;6277966;28;20481;-61
2023/02/11 09:18:23;;;;;;;22.83;17.87;;;5.70;63.20;;;;;;6277309;28;20485;-61
2023/02/11 09:21:27;;;;;;;28.00;19.60;;;5.80;62.20;;;;;;6276613;28;20484;-62
2023/02/11 09:24:30;;;;;;;35.20;22.03;;;5.80;60.70;;;;;;6261804;28;20527;-62
2023/02/11 09:27:33;;;;;;;26.83;18.70;;;5.60;62.00;;;;;;6275056;28;20467;-61
2023/02/11 09:30:38;;;;;;;24.20;19.53;;;5.90;61.20;;;;;;6283149;28;20468;-60
2023/02/11 09:33:46;;;;;;;19.17;16.70;;;8.40;59.60;;;;;;6293280;28;20968;-60
2023/02/11 09:36:51;;;;;;;23.80;16.80;;;12.00;49.80;;;;;;6275616;28;20480;-62
2023/02/11 09:39:54;;;;;;;25.10;19.80;;;13.50;41.20;;;;;;6274523;28;20945;-61
2023/02/11 09:43:05;;;;;;;25.37;20.90;;;13.20;38.60;;;;;;6275463;28;20481;-60
2023/02/11 09:46:15;;;;;;;22.97;20.07;;;12.10;39.50;;;;;;6275439;28;20474;-60
2023/02/11 09:49:25;;;;;;;23.70;20.30;;;10.90;41.00;;;;;;6274724;28;20484;-60
2023/02/11 09:52:37;;;;;;;22.67;19.20;;;9.90;43.00;;;;;;6275425;28;20489;-60
2023/02/11 09:55:42;;;;;;;25.50;19.27;;;8.90;44.80;;;;;;6275018;28;20474;-60
2023/02/11 09:58:46;;;;;;;22.70;18.53;;;8.40;46.70;;;;;;6274619;28;20482;-64
2023/02/11 10:01:56;;;;;;;23.63;20.50;;;8.40;48.10;;;;;;6274876;28;20489;-65
2023/02/11 10:05:25;;;;;;;25.97;20.00;;;9.70;46.40;;;;;;6275251;28;20489;-64
2023/02/11 10:08:39;;;;;;;21.77;18.37;;;11.00;44.00;;;;;;6275569;28;20795;-65
2023/02/11 10:11:52;;;;;;;20.33;18.40;;;13.80;39.30;;;;;;6275558;28;20458;-66
2023/02/11 10:15:12;;;;;;;25.20;19.87;;;15.40;38.80;;;;;;6274618;28;20478;-63
2023/02/11 10:18:40;;;;;;;22.07;20.03;;;16.30;34.40;;;;;;6272994;28;20473;-63
2023/02/11 10:21:52;;;;;;;20.90;18.70;;;16.40;32.90;;;;;;6274439;28;20470;-63
2023/02/11 10:24:58;;;;;;;21.33;19.20;;;17.40;30.80;;;;;;6275490;28;20490;-63
2023/02/11 10:28:12;;;;;;;19.40;17.50;;;19.20;29.00;;;;;;6261369;28;20231;-62
2023/02/11 10:31:20;;;;;;;21.60;18.47;;;20.90;26.60;;;;;;6274443;28;20224;-62
2023/02/11 10:34:25;;;;;;;19.23;17.40;;;21.70;24.70;;;;;;6274477;28;20734;-62
2023/02/11 10:37:30;;;;;;;22.90;18.80;;;22.30;23.80;;;;;;6274559;28;20216;-62
2023/02/11 10:40:33;;;;;;;20.80;18.60;;;23.50;22.40;;;;;;6273186;28;20690;-63
2023/02/11 10:43:37;;;;;;;22.23;20.03;;;23.90;22.10;;;;;;6286220;28;20651;-63
2023/02/11 10:46:40;;;;;;;22.53;20.17;;;25.80;20.80;;;;;;6273971;28;20541;-63
2023/02/11 10:49:46;;;;;;;22.30;20.40;;;27.50;19.40;;;;;;6274591;28;20234;-64
2023/02/11 10:52:49;;;;;;;21.70;19.63;;;29.00;18.10;;;;;;6274583;28;20234;-66
2023/02/11 10:55:56;;;;;;;22.50;20.40;;;30.50;17.10;;;;;;6274753;28;20210;-64
2023/02/11 10:59:01;;;;;;;18.38;16.73;;;32.50;15.30;;;;;;6274782;28;20242;-63
2023/02/11 11:02:07;;;;;;;17.75;16.15;;;34.10;13.90;;;;;;6274234;28;20222;-63
2023/02/11 11:05:19;;;;;;;17.45;15.95;;;35.50;12.40;;;;;;6273954;28;20234;-64
2023/02/11 11:08:22;;;;;;;15.82;14.43;;;36.20;11.50;;;;;;6274890;28;20230;-64
2023/02/11 11:11:26;;;;;;;16.85;15.52;;;36.90;10.60;;;;;;6273759;28;20589;-64
2023/02/11 11:14:29;;;;;;;16.77;15.27;;;36.00;10.40;;;;;;6273985;28;20241;-64
2023/02/11 11:17:33;;;;;;;16.27;14.88;;;34.20;10.80;;;;;;6274244;28;20238;-64
2023/02/11 11:20:37;;;;;;;17.00;15.70;;;32.60;11.50;;;;;;6273987;28;20244;-65
2023/02/11 11:23:49;;;;;;;16.83;15.40;;;31.30;12.20;;;;;;6274340;28;20233;-63
2023/02/11 11:26:54;;;;;;;16.20;14.70;;;29.10;13.10;;;;;;6266875;28;20671;-64
2023/02/11 11:30:00;;;;;;;16.93;15.53;;;28.40;14.10;;;;;;6257106;28;20253;-64
2023/02/11 11:33:03;;;;;;;17.03;15.43;;;29.80;13.70;;;;;;6275504;28;20644;-63
2023/02/11 11:36:11;;;;;;;15.07;13.70;;;28.50;13.90;;;;;;6253871;28;20782;-62
2023/02/11 11:39:21;;;;;;;16.60;14.97;;;25.70;15.40;;;;;;6269256;28;20680;-63
2023/02/11 11:42:27;;;;;;;15.80;14.30;;;22.30;17.40;;;;;;6271636;28;20250;-63
2023/02/11 11:45:31;;;;;;;16.10;14.10;;;20.20;19.80;;;;;;6252559;28;20224;-63
2023/02/11 11:48:38;;;;;;;14.50;12.97;;;19.20;20.60;;;;;;6272344;28;20235;-63
2023/02/11 11:51:51;;;;;;;15.10;13.53;;;18.00;21.80;;;;;;6277561;28;20231;-63
2023/02/11 11:55:02;;;;;;;15.23;13.77;;;19.90;21.90;;;;;;6277195;28;20234;-62
2023/02/11 11:58:13;;;;;;;14.37;13.07;;;21.60;20.60;;;;;;6277365;28;20667;-63
2023/02/11 12:01:30;;;;;;;14.07;12.80;;;25.60;18.90;;;;;;6274810;28;20254;-63
2023/02/11 12:04:58;;;;;;;17.43;15.63;;;28.20;16.70;;;;;;6276994;28;20231;-63
2023/02/11 12:08:11;;;;;;;16.10;14.70;;;29.90;15.40;;;;;;6276859;28;20230;-64
2023/02/11 12:11:24;;;;;;;16.08;14.77;;;32.30;14.20;;;;;;6277404;28;20200;-63
2023/02/11 12:14:39;;;;;;;15.90;14.23;;;33.90;12.80;;;;;;6277082;28;20682;-64
2023/02/11 12:17:57;;;;;;;15.63;14.15;;;35.20;12.10;;;;;;6277523;28;20223;-64
2023/02/11 12:21:29;;;;;;;15.13;13.63;;;35.80;11.40;;;;;;6277241;28;20227;-63
2023/02/11 12:24:51;;;;;;;15.23;13.93;;;35.80;11.30;;;;;;6272819;28;20235;-63
2023/02/11 12:28:17;;;;;;;15.48;14.07;;;35.50;11.40;;;;;;6277064;28;20232;-63
2023/02/11 12:31:43;;;;;;;13.68;12.48;;;36.20;10.90;;;;;;6271653;28;20639;-63
2023/02/11 12:35:05;;;;;;;13.40;12.38;;;36.90;10.40;;;;;;6260924;28;20240;-64
2023/02/11 12:38:31;;;;;;;13.93;12.05;;;36.60;10.30;;;;;;6251614;28;20224;-63
2023/02/11 12:45:26;;;;;;;13.47;12.20;;;31.20;11.80;;;;;;6250848;28;20232;-63
2023/02/11 12:48:46;;;;;;;13.60;12.30;;;27.90;13.80;;;;;;6275667;28;20230;-63
2023/02/11 12:52:05;;;;;;;14.17;12.87;;;25.50;15.60;;;;;;6274992;28;20257;-61
2023/02/11 12:55:17;;;;;;;12.47;11.33;;;24.70;16.40;;;;;;6275450;28;20564;-62
2023/02/11 12:58:25;;;;;;;11.57;10.47;;;25.50;16.50;;;;;;6275662;28;20242;-63
2023/02/11 13:01:43;;;;;;;12.20;11.03;;;27.10;15.40;;;;;;6274696;28;20256;-63
2023/02/11 13:04:53;;;;;;;11.27;10.20;;;27.50;14.40;;;;;;6275771;28;20329;-63
2023/02/11 13:08:04;;;;;;;15.03;11.70;;;26.50;14.40;;;;;;6276130;28;20663;-63
2023/02/11 13:11:13;;;;;;;11.53;10.33;;;24.50;15.70;;;;;;6275999;28;20195;-64
2023/02/11 13:14:34;;;;;;;12.53;11.27;;;23.50;16.30;;;;;;6276092;28;20203;-63
2023/02/11 13:17:44;;;;;;;10.70;9.70;;;23.50;16.60;;;;;;6275901;28;20219;-63
2023/02/11 13:20:58;;;;;;;9.87;8.97;;;24.50;16.60;;;;;;6275164;28;20636;-63
2023/02/11 13:24:17;;;;;;;10.77;9.77;;;27.60;15.40;;;;;;6274448;28;20219;-63
2023/02/11 13:27:32;;;;;;;13.10;10.07;;;29.80;13.30;;;;;;6271537;28;20231;-64
2023/02/11 13:30:45;;;;;;;10.73;9.73;;;30.40;12.40;;;;;;6274480;28;20227;-64
2023/02/11 13:33:49;;;;;;;10.00;9.10;;;31.00;12.40;;;;;;6263343;28;20234;-63
2023/02/11 13:36:57;;;;;;;10.80;9.82;;;32.10;11.80;;;;;;6274985;28;20298;-63
2023/02/11 13:40:02;;;;;;;11.32;10.32;;;32.20;11.30;;;;;;6274576;28;20223;-63
2023/02/11 13:43:18;;;;;;;10.50;9.60;;;32.00;11.60;;;;;;6274628;28;20582;-63
2023/02/11 13:46:23;;;;;;;10.65;9.63;;;32.40;11.00;;;;;;6273870;28;20314;-63
2023/02/11 13:49:32;;;;;;;11.27;10.13;;;31.20;11.00;;;;;;6274724;28;20700;-62
2023/02/11 13:52:39;;;;;;;11.50;10.40;;;28.60;12.20;;;;;;6272775;28;20223;-62
2023/02/11 13:55:46;;;;;;;10.10;9.10;;;25.40;14.10;;;;;;6274422;28;20552;-62
2023/02/11 13:58:51;;;;;;;8.17;7.47;;;22.80;15.00;;;;;;6274366;28;20255;-62
2023/02/11 14:09:37;;;;;;;8.27;7.40;;;19.30;16.90;;;;;;6275094;28;20589;-62
2023/02/11 14:12:41;;;;;;;10.30;9.23;;;17.90;17.70;;;;;;6274675;28;20517;-62
2023/02/11 14:15:46;;;;;;;8.93;7.50;;;17.20;18.10;;;;;;6275241;28;20238;-62
2023/02/11 14:19:02;;;;;;;9.30;7.40;;;17.30;18.60;;;;;;6274625;28;20511;-62
2023/02/11 14:22:15;;;;;;;9.83;7.00;;;16.80;18.90;;;;;;6274919;28;20545;-62
2023/02/11 14:25:23;;;;;;;8.23;7.43;;;16.50;19.10;;;;;;6274263;28;20481;-61
2023/02/11 14:28:33;;;;;;;8.57;7.73;;;16.40;19.30;;;;;;6273809;28;20493;-61
2023/02/11 14:31:42;;;;;;;7.77;6.53;;;15.80;19.60;;;;;;6274051;28;20466;-61
2023/02/11 14:34:55;;;;;;;8.63;7.80;;;15.50;20.00;;;;;;6273942;28;20518;-61
2023/02/11 14:38:07;;;;;;;6.80;5.80;;;14.90;20.30;;;;;;6265061;28;20478;-61
2023/02/11 14:41:18;;;;;;;8.07;7.27;;;14.50;21.00;;;;;;6274371;28;20426;-61
2023/02/11 14:44:25;;;;;;;9.17;7.10;;;14.10;21.60;;;;;;6273894;28;21157;-61
2023/02/11 14:47:36;;;;;;;13.50;11.07;;;13.70;21.70;;;;;;6273786;28;20542;-62
2023/02/11 14:50:46;;;;;;;9.67;8.73;;;13.20;22.40;;;;;;6273160;28;20561;-62
2023/02/11 14:53:52;;;;;;;10.67;7.97;;;13.00;22.80;;;;;;6274034;28;20466;-60
2023/02/11 14:57:13;;;;;;;12.57;10.70;;;12.80;23.00;;;;;;6274779;28;20865;-61
2023/02/11 15:00:19;;;;;;;7.87;6.30;;;12.50;23.00;;;;;;6273246;28;20957;-61
2023/02/11 15:03:42;;;;;;;10.50;6.73;;;12.20;23.20;;;;;;6273655;28;20466;-61
2023/02/11 15:06:49;;;;;;;8.53;5.90;;;11.90;23.50;;;;;;6274020;28;20485;-61
2023/02/11 15:09:54;;;;;;;7.50;6.70;;;11.90;23.70;;;;;;6278272;28;20478;-61
2023/02/11 15:13:03;;;;;;;7.53;6.20;;;11.80;23.80;;;;;;6279349;28;20485;-61
2023/02/11 15:16:10;;;;;;;7.33;6.63;;;11.70;23.70;;;;;;6278586;28;20474;-61
2023/02/11 15:19:23;;;;;;;8.53;7.00;;;11.50;23.90;;;;;;6278116;28;20490;-61
2023/02/11 15:22:35;;;;;;;7.27;6.60;;;11.30;24.70;;;;;;6278806;28;20477;-62
2023/02/11 15:25:45;;;;;;;11.77;7.93;;;11.00;25.30;;;;;;6278656;28;20481;-62
2023/02/11 15:28:50;;;;;;;9.03;7.23;;;10.90;25.70;;;;;;6277955;28;20551;-61
2023/02/11 15:32:06;;;;;;;10.83;9.80;;;10.70;26.30;;;;;;6278399;28;20478;-61
2023/02/11 15:35:12;;;;;;;9.80;8.80;;;10.60;26.70;;;;;;6278196;28;20441;-61
2023/02/11 15:38:18;;;;;;;10.77;6.60;;;10.50;26.90;;;;;;6278551;28;20611;-62
2023/02/11 15:41:38;;;;;;;9.27;8.33;;;10.40;27.00;;;;;;6278595;28;20427;-61
2023/02/11 15:44:44;;;;;;;8.90;7.63;;;10.30;27.30;;;;;;6276690;28;20806;-61
2023/02/11 15:47:53;;;;;;;49.87;44.50;;;10.20;27.60;;;;;;6277515;28;20463;-61
2023/02/11 15:51:01;;;;;;;13.53;12.27;;;10.20;27.80;;;;;;6277502;28;20478;-61
2023/02/11 15:54:16;;;;;;;11.17;7.67;;;10.10;27.80;;;;;;6278028;28;20470;-61
2023/02/11 15:57:23;;;;;;;9.53;8.63;;;9.90;29.20;;;;;;6277514;28;20528;-61
2023/02/11 16:00:36;;;;;;;10.67;8.30;;;9.70;29.50;;;;;;6277500;28;20478;-62
2023/02/11 16:03:43;;;;;;;10.73;9.57;;;9.50;29.80;;;;;;6277832;28;20476;-61
2023/02/11 16:06:52;;;;;;;12.13;8.20;;;9.20;30.40;;;;;;6276687;28;21021;-61
2023/02/11 16:10:00;;;;;;;10.53;8.30;;;9.20;30.60;;;;;;6276942;28;20947;-61